Time;durP1;ratioP1;P1;durP2;ratioP2;P2;SDS_P1;SDS_P2;PMS_P1;PMS_P2;Temp;Humidity;BMP_temperature;BMP_pressure;BME280_temperature;BME280_humidity;BME280_pressure;Samples;Min_cycle;Max_cycle;Signal;HPM_P1;HPM_P2
2021/12/20 00:01:41;;;;;;;1.95;0.52;;;21.80;37.20;;;;;;5034086;28;20197;-51
2021/12/20 00:04:07;;;;;;;1.42;0.57;;;21.80;37.20;;;;;;5046588;28;20021;-50
2021/12/20 00:06:33;;;;;;;1.70;0.75;;;21.80;37.20;;;;;;5034243;28;20028;-45
2021/12/20 00:08:59;;;;;;;2.15;0.90;;;21.80;37.20;;;;;;5042448;28;20033;-47
2021/12/20 00:11:24;;;;;;;1.08;0.55;;;21.80;37.20;;;;;;5035808;28;20027;-47
2021/12/20 00:13:50;;;;;;;1.48;0.60;;;21.80;37.20;;;;;;5043280;28;20183;-46
2021/12/20 00:16:16;;;;;;;1.42;0.50;;;21.80;37.20;;;;;;5049284;28;20032;-47
2021/12/20 00:18:43;;;;;;;2.47;0.77;;;21.80;37.20;;;;;;5041381;28;20018;-50
2021/12/20 00:21:10;;;;;;;1.52;0.68;;;21.80;37.20;;;;;;5036483;28;20482;-45
2021/12/20 00:23:36;;;;;;;1.35;0.60;;;21.80;37.10;;;;;;5043469;28;20395;-46
2021/12/20 00:26:02;;;;;;;1.38;0.77;;;21.80;37.10;;;;;;5033554;28;20433;-46
2021/12/20 00:28:28;;;;;;;1.42;0.52;;;21.80;37.10;;;;;;5040334;28;20021;-46
2021/12/20 00:30:54;;;;;;;1.27;0.55;;;21.80;37.00;;;;;;5044015;28;20494;-48
2021/12/20 00:33:19;;;;;;;1.33;0.35;;;21.80;37.00;;;;;;5036120;28;20136;-46
2021/12/20 00:35:46;;;;;;;1.17;0.57;;;21.70;36.90;;;;;;5049736;28;20104;-50
2021/12/20 00:40:57;;;;;;;1.88;0.85;;;21.70;36.80;;;;;;5040907;28;20032;-47
2021/12/20 00:43:24;;;;;;;1.70;0.70;;;21.70;36.80;;;;;;5034585;28;20018;-46
2021/12/20 00:45:50;;;;;;;1.67;0.70;;;21.80;36.80;;;;;;5044286;28;20090;-49
2021/12/20 00:48:16;;;;;;;1.73;0.70;;;21.70;36.70;;;;;;5037375;28;20021;-53
2021/12/20 00:50:44;;;;;;;1.50;0.65;;;21.70;36.70;;;;;;5041051;28;20124;-53
2021/12/20 00:53:12;;;;;;;2.33;0.90;;;21.70;36.70;;;;;;5023200;28;20037;-48
2021/12/20 00:55:38;;;;;;;2.38;0.80;;;21.70;36.70;;;;;;5036738;28;20029;-47
2021/12/20 00:58:05;;;;;;;1.60;0.73;;;21.70;36.60;;;;;;5035739;28;20104;-49
2021/12/20 01:00:42;;;;;;;2.40;0.70;;;21.70;36.60;;;;;;5040907;28;20375;-46
2021/12/20 01:03:10;;;;;;;2.17;0.70;;;21.80;36.60;;;;;;5037153;28;20046;-47
2021/12/20 01:05:38;;;;;;;3.17;1.17;;;21.70;36.60;;;;;;5048790;28;20340;-46
2021/12/20 01:08:06;;;;;;;1.98;0.88;;;21.70;36.50;;;;;;5040813;28;20048;-47
2021/12/20 01:10:32;;;;;;;1.88;0.80;;;21.70;36.50;;;;;;5043416;28;20034;-48
2021/12/20 01:13:01;;;;;;;2.50;1.00;;;21.70;36.50;;;;;;5037976;28;20037;-47
2021/12/20 01:15:33;;;;;;;2.45;0.85;;;21.70;36.50;;;;;;5046741;28;20021;-46
2021/12/20 01:18:00;;;;;;;2.40;0.80;;;21.70;36.40;;;;;;5042062;28;20112;-48
2021/12/20 01:20:26;;;;;;;3.00;1.27;;;21.70;36.50;;;;;;5049351;28;20143;-46
2021/12/20 01:22:52;;;;;;;2.85;1.00;;;21.70;36.50;;;;;;5051737;28;20088;-49
2021/12/20 01:25:20;;;;;;;2.80;0.98;;;21.60;36.40;;;;;;5044287;28;20021;-46
2021/12/20 01:27:46;;;;;;;2.95;0.80;;;21.60;36.40;;;;;;5038121;28;20496;-46
2021/12/20 01:30:14;;;;;;;3.15;1.00;;;21.60;36.30;;;;;;5040808;28;20121;-49
2021/12/20 01:32:41;;;;;;;3.97;0.73;;;21.60;36.30;;;;;;5040881;28;20417;-46
2021/12/20 01:35:09;;;;;;;2.17;0.90;;;21.60;36.30;;;;;;5040967;28;20021;-48
2021/12/20 01:37:35;;;;;;;3.33;0.98;;;21.60;36.30;;;;;;5021566;28;20144;-45
2021/12/20 01:40:01;;;;;;;2.75;0.95;;;21.60;36.30;;;;;;5046329;28;20025;-48
2021/12/20 01:42:31;;;;;;;2.15;0.82;;;21.60;36.30;;;;;;5038356;28;20021;-46
2021/12/20 01:44:58;;;;;;;2.50;0.88;;;21.60;36.20;;;;;;5039690;28;20025;-50
2021/12/20 01:47:30;;;;;;;2.28;0.82;;;21.60;36.20;;;;;;5044737;28;20040;-45
2021/12/20 01:50:05;;;;;;;3.00;0.85;;;21.60;36.20;;;;;;5035787;28;20440;-46
2021/12/20 01:52:39;;;;;;;2.30;0.88;;;21.60;36.20;;;;;;5051187;28;20021;-45
2021/12/20 01:55:09;;;;;;;;;;;21.60;36.10;;;;;;5042883;28;20021;-47
2021/12/20 01:57:35;;;;;;;2.13;0.65;;;21.50;36.10;;;;;;5040428;28;20309;-47
2021/12/20 02:00:09;;;;;;;2.97;0.90;;;21.50;36.20;;;;;;5032450;28;20090;-46
2021/12/20 02:02:35;;;;;;;2.55;0.85;;;21.60;36.10;;;;;;5040204;28;20041;-49
2021/12/20 02:05:12;;;;;;;2.53;1.02;;;21.50;36.10;;;;;;5037552;28;20096;-47
2021/12/20 02:07:51;;;;;;;3.83;1.13;;;21.50;36.10;;;;;;5025425;28;20343;-51
2021/12/20 02:10:19;;;;;;;3.08;1.00;;;21.50;36.00;;;;;;5044762;28;20049;-46
2021/12/20 02:12:45;;;;;;;2.50;0.65;;;21.50;36.00;;;;;;5040261;28;20036;-48
2021/12/20 02:15:11;;;;;;;2.40;1.13;;;21.50;36.00;;;;;;5042956;28;20032;-46
2021/12/20 02:17:39;;;;;;;1.98;0.80;;;21.50;36.00;;;;;;5036339;28;20017;-51
2021/12/20 02:20:06;;;;;;;2.65;0.95;;;21.50;36.00;;;;;;5043343;28;20343;-49
2021/12/20 02:22:31;;;;;;;3.67;0.98;;;21.50;36.00;;;;;;5043330;28;20068;-45
2021/12/20 02:24:57;;;;;;;2.83;1.20;;;21.50;36.00;;;;;;5025696;28;20111;-44
2021/12/20 02:27:23;;;;;;;1.60;0.68;;;21.50;36.00;;;;;;5045525;28;20344;-46
2021/12/20 02:30:11;;;;;;;3.05;1.10;;;21.50;36.10;;;;;;5043441;28;20075;-48
2021/12/20 02:38:26;;;;;;;3.17;1.10;;;21.50;36.10;;;;;;5040367;28;20030;-49
2021/12/20 02:41:07;;;;;;;3.30;1.00;;;21.50;36.10;;;;;;5045930;28;20052;-46
2021/12/20 02:43:39;;;;;;;2.22;0.90;;;21.50;36.00;;;;;;5043228;28;20021;-47
2021/12/20 02:46:23;;;;;;;3.40;1.02;;;21.40;36.00;;;;;;5041256;28;20021;-48
2021/12/20 02:48:50;;;;;;;2.83;0.77;;;21.50;36.00;;;;;;5040540;28;20471;-47
2021/12/20 02:51:16;;;;;;;1.95;0.85;;;21.40;36.00;;;;;;5040200;28;20078;-48
2021/12/20 02:53:42;;;;;;;2.47;0.80;;;21.40;36.00;;;;;;5035349;28;20347;-46
2021/12/20 02:56:08;;;;;;;2.25;0.98;;;21.40;36.00;;;;;;5039990;28;20017;-47
2021/12/20 02:58:34;;;;;;;2.50;1.05;;;21.50;36.00;;;;;;5041726;28;20163;-49
2021/12/20 03:01:00;;;;;;;3.40;0.93;;;21.40;35.90;;;;;;5042879;28;20100;-48
2021/12/20 03:03:26;;;;;;;2.65;1.00;;;21.40;35.90;;;;;;5042972;28;20048;-49
2021/12/20 03:05:52;;;;;;;2.25;0.90;;;21.40;35.90;;;;;;5045098;28;20022;-45
2021/12/20 03:08:21;;;;;;;4.07;1.10;;;21.40;35.90;;;;;;5035343;28;20064;-50
2021/12/20 03:10:47;;;;;;;2.95;1.13;;;21.40;35.80;;;;;;5045310;28;20061;-52
2021/12/20 03:13:14;;;;;;;3.22;0.80;;;21.40;35.80;;;;;;5052604;28;20017;-52
2021/12/20 03:15:40;;;;;;;3.58;1.05;;;21.40;35.80;;;;;;5048870;28;20328;-52
2021/12/20 03:18:06;;;;;;;2.83;1.00;;;21.40;35.70;;;;;;5035820;28;20105;-47
2021/12/20 03:20:32;;;;;;;4.53;1.17;;;21.40;35.80;;;;;;5036526;28;20048;-50
2021/12/20 03:22:58;;;;;;;3.42;1.13;;;21.40;35.70;;;;;;5039394;28;20037;-49
2021/12/20 03:25:26;;;;;;;2.63;1.20;;;21.40;35.70;;;;;;5036748;28;20029;-50
2021/12/20 03:27:52;;;;;;;3.50;1.10;;;21.40;35.70;;;;;;5034476;28;20096;-52
2021/12/20 03:30:19;;;;;;;2.97;1.08;;;21.40;35.70;;;;;;5037745;28;20124;-50
2021/12/20 03:32:45;;;;;;;2.53;0.90;;;21.40;35.70;;;;;;5023214;28;20408;-49
2021/12/20 03:35:11;;;;;;;2.95;1.20;;;21.40;35.60;;;;;;5036179;28;20060;-49
2021/12/20 03:37:37;;;;;;;3.47;1.27;;;21.40;35.60;;;;;;5048664;28;20048;-52
2021/12/20 03:40:03;;;;;;;2.95;1.10;;;21.40;35.60;;;;;;5036093;28;20076;-48
2021/12/20 03:42:30;;;;;;;2.50;1.00;;;21.40;35.60;;;;;;5040561;28;20029;-47
2021/12/20 03:44:55;;;;;;;3.40;1.20;;;21.40;35.60;;;;;;5035089;28;20021;-49
2021/12/20 03:47:21;;;;;;;2.42;0.82;;;21.40;35.60;;;;;;5041263;28;20428;-46
2021/12/20 03:49:47;;;;;;;2.83;1.00;;;21.40;35.60;;;;;;5034369;28;20037;-47
2021/12/20 03:52:13;;;;;;;2.67;0.85;;;21.40;35.60;;;;;;5043908;28;20021;-47
2021/12/20 03:54:39;;;;;;;3.72;1.13;;;21.40;35.50;;;;;;5036590;28;20088;-50
2021/12/20 03:57:05;;;;;;;3.60;1.13;;;21.40;35.50;;;;;;5043474;28;20037;-47
2021/12/20 03:59:32;;;;;;;3.45;1.00;;;21.40;35.50;;;;;;5034469;28;20060;-50
2021/12/20 04:01:58;;;;;;;2.85;1.05;;;21.40;35.50;;;;;;5043722;28;20432;-49
2021/12/20 04:04:24;;;;;;;2.58;0.90;;;21.40;35.50;;;;;;5040261;28;20072;-52
2021/12/20 04:06:50;;;;;;;2.65;1.10;;;21.30;35.40;;;;;;5038968;28;20033;-47
2021/12/20 04:09:16;;;;;;;2.97;1.08;;;21.40;35.40;;;;;;5033841;28;20112;-45
2021/12/20 04:11:42;;;;;;;3.22;1.33;;;21.40;35.40;;;;;;5040490;28;20016;-47
2021/12/20 04:14:08;;;;;;;3.13;1.13;;;21.40;35.40;;;;;;5046410;28;20025;-48
2021/12/20 04:16:36;;;;;;;3.05;1.10;;;21.30;35.30;;;;;;5037210;28;20116;-48
2021/12/20 04:19:03;;;;;;;3.80;1.00;;;21.30;35.30;;;;;;5037815;28;20440;-48
2021/12/20 04:21:30;;;;;;;2.53;1.15;;;21.30;35.20;;;;;;5047226;28;20468;-46
2021/12/20 04:23:56;;;;;;;2.75;0.95;;;21.30;35.30;;;;;;5035814;28;20530;-51
2021/12/20 04:26:22;;;;;;;3.40;1.23;;;21.30;35.20;;;;;;5034932;28;20026;-45
2021/12/20 04:28:48;;;;;;;2.60;1.00;;;21.30;35.20;;;;;;5033690;28;20034;-51
2021/12/20 04:31:14;;;;;;;1.60;0.80;;;21.30;35.20;;;;;;5034094;28;20091;-46
2021/12/20 04:33:40;;;;;;;2.63;1.10;;;21.30;35.20;;;;;;5042168;28;20425;-45
2021/12/20 04:36:06;;;;;;;2.75;0.88;;;21.30;35.20;;;;;;5037723;28;20021;-47
2021/12/20 04:38:32;;;;;;;2.40;0.95;;;21.30;35.10;;;;;;5052105;28;20458;-47
2021/12/20 04:40:58;;;;;;;3.30;1.23;;;21.30;35.10;;;;;;5045607;28;20021;-49
2021/12/20 04:43:27;;;;;;;3.47;1.33;;;21.30;35.10;;;;;;5022976;28;20041;-47
2021/12/20 04:45:53;;;;;;;3.10;0.90;;;21.30;35.00;;;;;;5037646;28;20021;-46
2021/12/20 04:48:18;;;;;;;4.82;0.90;;;21.30;35.00;;;;;;5049460;28;20032;-47
2021/12/20 04:50:44;;;;;;;2.50;0.98;;;21.30;34.90;;;;;;5043698;28;20037;-47
2021/12/20 04:53:10;;;;;;;2.88;1.13;;;21.30;34.90;;;;;;5047072;28;20088;-46
2021/12/20 04:55:36;;;;;;;2.05;0.88;;;21.30;34.80;;;;;;5054888;28;20025;-47
2021/12/20 04:58:05;;;;;;;3.10;0.93;;;21.20;34.70;;;;;;5045770;28;20017;-46
2021/12/20 05:00:36;;;;;;;3.10;1.05;;;21.30;34.70;;;;;;5042240;28;20034;-48
2021/12/20 05:03:03;;;;;;;3.25;1.17;;;21.30;34.70;;;;;;5042765;28;20044;-46
2021/12/20 05:05:29;;;;;;;2.85;1.30;;;21.20;34.60;;;;;;5041357;28;20494;-47
2021/12/20 05:07:55;;;;;;;3.13;1.08;;;21.20;34.60;;;;;;5044392;28;20060;-52
2021/12/20 05:10:42;;;;;;;3.33;1.00;;;21.20;34.50;;;;;;5051296;28;20116;-47
2021/12/20 05:13:11;;;;;;;2.58;0.77;;;21.20;34.50;;;;;;5030488;28;20060;-49
2021/12/20 05:15:38;;;;;;;2.05;0.95;;;21.20;35.20;;;;;;5049009;28;20087;-45
2021/12/20 05:18:06;;;;;;;3.60;1.23;;;21.20;34.50;;;;;;5043873;28;20100;-44
2021/12/20 05:20:33;;;;;;;5.28;1.20;;;21.20;34.50;;;;;;5048983;28;20493;-48
2021/12/20 05:22:59;;;;;;;2.53;1.00;;;21.20;34.50;;;;;;5045146;28;20017;-51
2021/12/20 05:25:26;;;;;;;3.95;1.10;;;21.20;34.50;;;;;;5054079;28;20033;-48
2021/12/20 05:27:52;;;;;;;3.97;1.40;;;21.20;34.50;;;;;;5050976;28;20025;-46
2021/12/20 05:30:18;;;;;;;3.03;1.10;;;21.20;34.50;;;;;;5040377;28;20029;-46
2021/12/20 05:32:45;;;;;;;2.05;0.88;;;21.20;34.40;;;;;;5045629;28;20656;-49
2021/12/20 05:35:12;;;;;;;2.10;1.05;;;21.20;34.40;;;;;;5052244;28;20057;-47
2021/12/20 05:37:38;;;;;;;3.03;1.05;;;21.20;35.00;;;;;;5049083;28;20029;-49
2021/12/20 05:40:07;;;;;;;3.53;1.10;;;21.20;34.40;;;;;;5039274;28;20043;-46
2021/12/20 05:42:32;;;;;;;4.45;1.08;;;21.20;34.40;;;;;;5040170;28;20040;-48
2021/12/20 05:44:58;;;;;;;2.22;0.80;;;21.20;34.40;;;;;;5044356;28;20432;-49
2021/12/20 05:47:24;;;;;;;2.83;0.93;;;21.20;34.40;;;;;;5038904;28;20074;-45
2021/12/20 05:49:51;;;;;;;2.47;1.00;;;21.20;34.40;;;;;;5050403;28;20542;-46
2021/12/20 05:52:17;;;;;;;2.03;0.88;;;21.20;34.40;;;;;;5037107;28;20033;-48
2021/12/20 05:54:44;;;;;;;2.47;1.00;;;21.20;34.40;;;;;;5039834;28;20052;-48
2021/12/20 05:57:09;;;;;;;2.75;0.88;;;21.20;34.40;;;;;;5038807;28;20033;-49
2021/12/20 05:59:35;;;;;;;3.05;1.13;;;21.20;34.40;;;;;;5042042;28;20017;-49
2021/12/20 06:02:01;;;;;;;2.55;0.90;;;21.20;34.40;;;;;;5035479;28;20174;-49
2021/12/20 06:04:27;;;;;;;2.20;1.13;;;21.20;34.50;;;;;;5046061;28;20087;-47
2021/12/20 06:06:53;;;;;;;2.80;1.00;;;21.20;34.50;;;;;;5044699;28;20021;-48
2021/12/20 06:09:19;;;;;;;2.75;0.80;;;21.10;34.50;;;;;;5037529;28;20048;-48
2021/12/20 06:11:46;;;;;;;2.45;0.98;;;21.20;34.60;;;;;;5047368;28;20455;-50
2021/12/20 06:14:12;;;;;;;2.72;1.02;;;21.10;35.10;;;;;;5049369;28;20044;-49
2021/12/20 06:16:37;;;;;;;2.92;1.10;;;21.20;34.50;;;;;;5038899;28;20021;-45
2021/12/20 06:19:04;;;;;;;3.42;1.15;;;21.10;34.50;;;;;;5023156;28;20064;-49
2021/12/20 06:21:29;;;;;;;2.38;0.80;;;21.10;34.50;;;;;;5037904;28;20032;-50
2021/12/20 06:23:55;;;;;;;3.30;1.00;;;21.10;34.50;;;;;;5040888;28;20017;-48
2021/12/20 06:26:23;;;;;;;5.07;1.48;;;21.10;34.50;;;;;;5045434;28;20443;-53
2021/12/20 06:28:50;;;;;;;2.97;0.80;;;21.10;34.50;;;;;;5037824;28;20038;-52
2021/12/20 06:31:17;;;;;;;2.17;0.90;;;21.10;34.40;;;;;;5047871;28;20124;-49
2021/12/20 06:33:43;;;;;;;2.28;0.98;;;21.10;34.40;;;;;;5049870;28;20032;-52
2021/12/20 06:36:09;;;;;;;2.50;0.80;;;21.10;34.40;;;;;;5038410;28;20017;-52
2021/12/20 06:38:35;;;;;;;3.45;1.02;;;21.10;34.30;;;;;;5044081;28;20439;-49
2021/12/20 06:41:01;;;;;;;2.13;0.80;;;21.10;34.30;;;;;;5037900;28;20021;-50
2021/12/20 06:43:30;;;;;;;2.33;0.90;;;21.10;34.30;;;;;;5045481;28;20025;-45
2021/12/20 06:45:56;;;;;;;2.42;0.70;;;21.10;34.30;;;;;;5044269;28;20320;-48
2021/12/20 06:48:21;;;;;;;4.60;1.30;;;21.10;34.30;;;;;;5035542;28;20017;-49
2021/12/20 06:50:47;;;;;;;1.90;0.88;;;21.10;34.20;;;;;;5048695;28;20337;-51
2021/12/20 06:53:13;;;;;;;2.17;0.80;;;21.10;34.20;;;;;;5053639;28;20031;-52
2021/12/20 06:55:39;;;;;;;3.50;1.08;;;21.10;34.20;;;;;;5041886;28;20064;-49
2021/12/20 06:58:05;;;;;;;2.75;1.00;;;21.10;34.20;;;;;;5034213;28;20017;-49
2021/12/20 07:00:31;;;;;;;2.85;0.88;;;21.10;34.20;;;;;;5041627;28;20076;-48
2021/12/20 07:02:57;;;;;;;4.70;1.00;;;21.10;34.20;;;;;;5034980;28;20038;-50
2021/12/20 07:05:25;;;;;;;1.80;0.68;;;21.10;34.20;;;;;;5044385;28;20400;-47
2021/12/20 07:07:52;;;;;;;1.83;0.88;;;21.10;34.20;;;;;;5034640;28;20029;-51
2021/12/20 07:10:18;;;;;;;2.25;0.88;;;21.10;34.30;;;;;;5043547;28;20036;-47
2021/12/20 07:12:44;;;;;;;2.95;1.10;;;21.10;34.30;;;;;;5038170;28;20495;-46
2021/12/20 07:15:13;;;;;;;2.55;0.88;;;21.10;34.30;;;;;;5038798;28;20028;-46
2021/12/20 07:17:39;;;;;;;2.45;0.93;;;21.10;34.30;;;;;;5051022;28;20029;-47
2021/12/20 07:20:06;;;;;;;2.42;1.10;;;21.10;34.30;;;;;;5036089;28;20021;-48
2021/12/20 07:22:32;;;;;;;2.50;1.02;;;21.10;34.30;;;;;;5039506;28;20843;-49
2021/12/20 07:24:58;;;;;;;3.25;1.00;;;21.10;34.30;;;;;;5038394;28;20094;-46
2021/12/20 07:27:24;;;;;;;3.03;1.15;;;21.10;34.30;;;;;;5036999;28;20025;-51
2021/12/20 07:29:50;;;;;;;2.88;1.00;;;21.10;34.30;;;;;;5034532;28;20452;-48
2021/12/20 07:32:15;;;;;;;2.33;0.73;;;21.10;34.30;;;;;;5046312;28;20113;-48
2021/12/20 07:34:41;;;;;;;2.78;0.80;;;21.10;34.20;;;;;;5051700;28;20340;-50
2021/12/20 07:37:07;;;;;;;3.35;1.25;;;21.10;34.20;;;;;;5041880;28;20429;-50
2021/12/20 07:39:34;;;;;;;3.53;1.20;;;21.10;34.20;;;;;;5045796;28;20017;-49
2021/12/20 07:42:00;;;;;;;1.35;0.70;;;21.10;34.20;;;;;;5034809;28;20449;-49
2021/12/20 07:44:26;;;;;;;3.17;1.00;;;21.10;34.20;;;;;;5043209;28;20048;-48
2021/12/20 07:46:52;;;;;;;3.10;0.82;;;21.10;34.20;;;;;;5043713;28;20095;-50
2021/12/20 07:49:19;;;;;;;1.95;0.80;;;21.10;34.20;;;;;;5046329;28;20037;-49
2021/12/20 07:51:45;;;;;;;2.83;1.25;;;21.10;34.30;;;;;;5039605;28;20036;-47
2021/12/20 07:54:10;;;;;;;3.08;1.10;;;21.10;34.40;;;;;;5046169;28;20099;-47
2021/12/20 07:56:36;;;;;;;3.65;0.90;;;21.10;34.50;;;;;;5044703;28;20100;-49
2021/12/20 07:59:07;;;;;;;3.85;1.10;;;21.20;34.50;;;;;;5040623;28;20029;-46
2021/12/20 08:01:35;;;;;;;2.80;1.02;;;21.20;34.30;;;;;;5034138;28;20347;-46
2021/12/20 08:04:03;;;;;;;3.30;1.10;;;21.30;34.30;;;;;;5053447;28;20076;-48
2021/12/20 08:06:29;;;;;;;2.42;1.15;;;21.40;34.20;;;;;;5050276;28;20096;-46
2021/12/20 08:08:55;;;;;;;2.67;0.98;;;21.50;34.00;;;;;;5044352;28;20032;-50
2021/12/20 08:11:21;;;;;;;1.90;0.80;;;21.60;33.90;;;;;;5057044;28;20025;-49
2021/12/20 08:13:47;;;;;;;2.28;1.00;;;21.70;33.80;;;;;;5056554;28;20045;-44
2021/12/20 08:16:14;;;;;;;2.22;1.00;;;21.70;33.60;;;;;;5058825;28;20025;-47
2021/12/20 08:18:44;;;;;;;2.72;1.00;;;21.80;33.40;;;;;;5058132;28;20079;-49
2021/12/20 08:21:10;;;;;;;3.35;1.25;;;21.90;33.20;;;;;;5057405;28;20039;-48
2021/12/20 08:23:37;;;;;;;3.90;0.95;;;22.00;33.10;;;;;;5057757;28;20029;-46
2021/12/20 08:26:04;;;;;;;3.72;1.45;;;22.10;33.00;;;;;;5056540;28;20056;-48
2021/12/20 08:28:30;;;;;;;2.17;0.70;;;22.10;32.70;;;;;;5041231;28;20024;-48
2021/12/20 08:30:57;;;;;;;3.70;1.00;;;22.20;32.70;;;;;;5047197;28;20097;-50
2021/12/20 08:33:23;;;;;;;2.17;0.73;;;22.30;32.60;;;;;;5043294;28;20465;-45
2021/12/20 08:35:49;;;;;;;5.18;1.00;;;22.40;32.50;;;;;;5040527;28;20106;-49
2021/12/20 08:38:20;;;;;;;2.33;0.80;;;22.50;32.30;;;;;;5040592;28;20463;-48
2021/12/20 08:40:47;;;;;;;2.75;1.08;;;22.50;32.20;;;;;;5054750;28;20029;-49
2021/12/20 08:43:14;;;;;;;2.85;0.93;;;22.60;32.20;;;;;;5041440;28;20281;-50
2021/12/20 08:45:41;;;;;;;3.00;0.90;;;22.60;32.10;;;;;;5048390;28;20027;-51
2021/12/20 08:48:07;;;;;;;2.20;0.90;;;22.70;32.00;;;;;;5046878;28;20057;-45
2021/12/20 08:50:33;;;;;;;3.17;1.25;;;22.80;32.00;;;;;;5052174;28;20029;-46
2021/12/20 08:52:59;;;;;;;2.67;1.20;;;22.80;31.90;;;;;;5044187;28;20028;-49
2021/12/20 08:55:25;;;;;;;3.03;1.15;;;22.90;31.90;;;;;;5048270;28;20033;-48
2021/12/20 08:57:52;;;;;;;2.70;1.20;;;22.90;31.90;;;;;;5047984;28;20113;-44
2021/12/20 09:00:25;;;;;;;2.83;1.20;;;23.00;31.80;;;;;;5041540;28;20456;-49
2021/12/20 09:02:51;;;;;;;1.67;0.75;;;23.00;31.80;;;;;;5045156;28;20037;-50
2021/12/20 09:05:27;;;;;;;3.08;1.00;;;23.00;31.70;;;;;;5050268;28;20025;-48
2021/12/20 09:07:55;;;;;;;4.18;1.33;;;23.10;31.70;;;;;;5046056;28;20040;-48
2021/12/20 09:10:21;;;;;;;2.97;1.00;;;23.10;31.60;;;;;;5046384;28;20044;-46
2021/12/20 09:12:47;;;;;;;4.75;1.13;;;23.10;31.60;;;;;;5040698;28;20310;-48
2021/12/20 09:15:17;;;;;;;2.63;1.10;;;23.20;31.60;;;;;;5049613;28;20033;-45
2021/12/20 09:17:48;;;;;;;2.60;1.08;;;23.20;31.50;;;;;;5053476;28;20048;-48
2021/12/20 09:20:21;;;;;;;3.15;1.15;;;23.30;31.50;;;;;;5030741;28;20099;-46
2021/12/20 09:23:01;;;;;;;2.58;1.10;;;23.30;31.50;;;;;;5046360;28;20056;-47
2021/12/20 09:25:28;;;;;;;3.38;1.20;;;23.40;31.50;;;;;;5045499;28;20032;-48
2021/12/20 09:27:56;;;;;;;2.28;1.00;;;23.40;31.40;;;;;;5056940;28;20025;-50
2021/12/20 09:30:24;;;;;;;1.98;1.00;;;23.40;31.40;;;;;;5030489;28;20387;-46
2021/12/20 09:32:50;;;;;;;1.88;0.90;;;23.50;31.30;;;;;;5053882;28;20029;-46
2021/12/20 09:35:16;;;;;;;2.50;0.90;;;23.50;31.30;;;;;;5052689;28;20192;-48
2021/12/20 09:37:43;;;;;;;3.63;1.10;;;23.50;31.30;;;;;;5055925;28;20025;-53
2021/12/20 09:40:14;;;;;;;3.65;1.27;;;23.50;31.20;;;;;;5056632;28;20363;-48
2021/12/20 09:42:53;;;;;;;2.90;1.10;;;23.50;31.20;;;;;;5056254;28;20021;-46
2021/12/20 09:45:22;;;;;;;2.45;0.73;;;23.60;31.10;;;;;;5057080;28;20328;-46
2021/12/20 09:47:50;;;;;;;2.08;0.88;;;23.50;31.10;;;;;;5056865;28;20021;-47
2021/12/20 09:50:17;;;;;;;2.80;0.77;;;23.60;31.10;;;;;;5056511;28;20047;-47
2021/12/20 09:52:44;;;;;;;1.88;0.55;;;23.50;31.10;;;;;;5055875;28;20435;-55
2021/12/20 09:55:14;;;;;;;2.55;1.10;;;23.60;31.10;;;;;;5038856;28;20435;-47
2021/12/20 09:57:42;;;;;;;2.58;0.90;;;23.50;31.00;;;;;;5056121;28;20100;-51
2021/12/20 10:00:15;;;;;;;2.00;0.98;;;23.50;31.00;;;;;;5056460;28;20028;-48
2021/12/20 10:02:47;;;;;;;2.10;1.00;;;23.60;31.10;;;;;;5053095;28;20041;-45
2021/12/20 10:05:17;;;;;;;2.13;0.90;;;23.50;31.20;;;;;;5055277;28;20040;-51
2021/12/20 10:07:50;;;;;;;2.25;0.77;;;23.50;31.30;;;;;;5039001;28;20415;-47
2021/12/20 10:10:48;;;;;;;1.52;0.70;;;23.60;31.40;;;;;;5038717;28;20040;-46
2021/12/20 10:13:29;;;;;;;1.83;0.77;;;23.60;31.40;;;;;;5037111;28;20067;-47
2021/12/20 10:15:57;;;;;;;3.15;0.90;;;23.60;31.50;;;;;;5055570;28;20023;-45
2021/12/20 10:18:25;;;;;;;2.60;0.90;;;23.60;31.50;;;;;;5055471;28;20021;-46
2021/12/20 10:20:54;;;;;;;4.50;1.27;;;23.60;31.50;;;;;;5055362;28;20033;-47
2021/12/20 10:23:30;;;;;;;2.38;1.00;;;23.60;31.50;;;;;;5055482;28;20057;-44
2021/12/20 10:26:14;;;;;;;2.33;0.88;;;23.60;31.40;;;;;;5056195;28;20514;-45
2021/12/20 10:28:42;;;;;;;3.47;1.10;;;23.60;31.30;;;;;;5055577;28;20043;-46
2021/12/20 10:31:16;;;;;;;2.15;1.00;;;23.60;31.40;;;;;;5055175;28;20033;-45
2021/12/20 10:34:03;;;;;;;3.63;1.05;;;23.60;31.30;;;;;;5055098;28;20037;-45
2021/12/20 10:36:32;;;;;;;2.53;1.15;;;23.60;31.30;;;;;;5049549;28;20121;-48
2021/12/20 10:38:59;;;;;;;2.67;1.10;;;23.50;31.30;;;;;;5048700;28;20037;-45
2021/12/20 10:41:35;;;;;;;2.65;1.08;;;23.50;31.30;;;;;;5043233;28;20188;-46
2021/12/20 10:44:15;;;;;;;3.00;0.80;;;23.50;31.40;;;;;;5043353;28;20432;-45
2021/12/20 10:46:49;;;;;;;2.60;1.10;;;23.50;31.70;;;;;;5054701;28;20035;-48
2021/12/20 10:49:15;;;;;;;3.30;0.93;;;23.50;32.00;;;;;;5049157;28;20039;-46
2021/12/20 10:51:48;;;;;;;2.50;1.00;;;23.40;32.20;;;;;;5047365;28;20116;-47
2021/12/20 10:54:18;;;;;;;2.60;1.08;;;23.40;32.40;;;;;;5052909;28;20127;-45
2021/12/20 10:56:56;;;;;;;3.67;1.10;;;23.40;32.60;;;;;;5046445;28;20481;-49
2021/12/20 10:59:24;;;;;;;5.05;1.08;;;23.40;32.80;;;;;;5052069;28;20016;-49
2021/12/20 11:04:38;;;;;;;;;;;23.40;33.00;;;;;;5048805;28;20030;-46
2021/12/20 11:09:36;;;;;;;3.45;1.65;;;23.30;34.00;;;;;;5047084;28;20456;-48
2021/12/20 11:12:06;;;;;;;2.72;1.00;;;23.30;33.40;;;;;;5040819;28;20044;-47
2021/12/20 11:14:34;;;;;;;3.35;1.13;;;23.30;33.40;;;;;;5044928;28;20082;-49
2021/12/20 11:17:03;;;;;;;2.60;1.10;;;23.30;33.50;;;;;;5037371;28;20249;-47
2021/12/20 11:19:32;;;;;;;3.78;1.40;;;23.30;33.50;;;;;;5038724;28;20056;-47
2021/12/20 11:22:26;;;;;;;1.13;0.65;;;23.30;33.60;;;;;;5045135;28;20032;-45
2021/12/20 11:24:56;;;;;;;3.22;1.33;;;23.30;33.60;;;;;;5048391;28;20040;-51
2021/12/20 11:27:30;;;;;;;4.63;1.20;;;23.30;33.70;;;;;;5054260;28;20032;-49
2021/12/20 11:29:57;;;;;;;1.67;0.80;;;23.30;33.80;;;;;;5054496;28;20025;-47
2021/12/20 11:32:25;;;;;;;2.30;1.13;;;23.30;33.80;;;;;;5052626;28;20443;-49
2021/12/20 11:34:51;;;;;;;2.17;0.93;;;23.30;33.80;;;;;;5055055;28;20071;-47
2021/12/20 11:37:20;;;;;;;3.17;1.10;;;23.30;33.80;;;;;;5053970;28;20037;-47
2021/12/20 11:39:47;;;;;;;3.35;1.30;;;23.40;33.90;;;;;;5054795;28;20087;-43
2021/12/20 11:42:14;;;;;;;5.10;1.30;;;23.40;33.90;;;;;;5052904;28;20572;-45
2021/12/20 11:44:46;;;;;;;2.90;1.23;;;23.40;34.50;;;;;;5054461;28;20125;-49
2021/12/20 11:47:41;;;;;;;3.88;1.27;;;23.40;33.90;;;;;;5053811;28;20028;-48
2021/12/20 11:50:14;;;;;;;2.40;0.93;;;23.40;33.90;;;;;;5054229;28;20448;-47
2021/12/20 11:52:42;;;;;;;3.63;1.30;;;23.40;33.90;;;;;;5054164;28;20021;-45
2021/12/20 11:55:25;;;;;;;3.25;1.27;;;23.40;33.90;;;;;;5054858;28;20050;-47
2021/12/20 11:57:59;;;;;;;2.78;1.05;;;23.40;33.90;;;;;;5053226;28;20444;-46
2021/12/20 12:00:37;;;;;;;3.50;1.10;;;23.40;33.90;;;;;;5050146;28;20025;-47
2021/12/20 12:03:15;;;;;;;6.18;1.40;;;23.30;33.80;;;;;;5045501;28;20079;-48
2021/12/20 12:06:06;;;;;;;2.67;1.17;;;23.40;33.90;;;;;;5044152;28;20021;-50
2021/12/20 12:08:41;;;;;;;2.80;1.08;;;23.40;33.80;;;;;;5049064;28;20353;-46
2021/12/20 12:11:07;;;;;;;2.72;0.85;;;23.40;33.90;;;;;;5053960;28;20424;-47
2021/12/20 12:16:29;;;;;;;3.10;1.10;;;23.40;33.80;;;;;;5054128;28;20032;-51
2021/12/20 12:19:02;;;;;;;2.72;1.23;;;23.40;33.80;;;;;;5052974;28;20313;-45
2021/12/20 12:21:33;;;;;;;2.28;1.00;;;23.40;33.80;;;;;;5053868;28;20021;-45
2021/12/20 12:24:00;;;;;;;3.33;1.02;;;23.50;33.80;;;;;;5052580;28;20033;-48
2021/12/20 12:26:31;;;;;;;3.30;1.50;;;23.40;33.80;;;;;;5054215;28;20044;-46
2021/12/20 12:28:58;;;;;;;6.43;2.10;;;23.50;33.80;;;;;;5051856;28;20639;-46
2021/12/20 12:31:27;;;;;;;5.00;2.05;;;23.50;33.80;;;;;;5035930;28;20349;-50
2021/12/20 12:34:07;;;;;;;3.53;1.65;;;23.40;33.80;;;;;;5037758;28;20026;-46
2021/12/20 12:36:39;;;;;;;4.32;2.33;;;23.40;33.70;;;;;;5046861;28;20106;-47
2021/12/20 12:39:27;;;;;;;5.78;1.90;;;23.40;33.80;;;;;;5036491;28;20256;-49
2021/12/20 12:42:01;;;;;;;3.35;1.40;;;23.40;33.90;;;;;;5049756;28;20324;-49
2021/12/20 12:44:32;;;;;;;3.40;1.38;;;23.40;33.90;;;;;;5044864;28;20024;-52
2021/12/20 12:47:01;;;;;;;3.67;1.40;;;23.40;33.90;;;;;;5051719;28;20089;-47
2021/12/20 12:49:29;;;;;;;6.10;1.65;;;23.50;34.00;;;;;;5054198;28;20095;-50
2021/12/20 12:52:04;;;;;;;3.00;1.35;;;23.50;33.90;;;;;;5034246;28;20484;-47
2021/12/20 12:54:33;;;;;;;4.32;1.30;;;23.50;33.90;;;;;;5044940;28;20021;-50
2021/12/20 12:57:07;;;;;;;3.45;1.65;;;23.50;33.80;;;;;;5056828;28;20086;-51
2021/12/20 12:59:36;;;;;;;3.97;1.38;;;23.50;33.80;;;;;;5054485;28;20108;-49
2021/12/20 13:02:20;;;;;;;3.85;0.90;;;23.50;33.80;;;;;;5057201;28;20036;-47
2021/12/20 13:04:49;;;;;;;2.90;1.23;;;23.50;33.80;;;;;;5039261;28;20467;-52
2021/12/20 13:07:26;;;;;;;4.22;1.48;;;23.50;33.80;;;;;;5047532;28;20017;-50
2021/12/20 13:09:57;;;;;;;3.00;1.10;;;23.50;33.80;;;;;;5050983;28;20043;-53
2021/12/20 13:12:36;;;;;;;4.00;1.33;;;23.50;33.80;;;;;;5044890;28;20030;-49